sensor_id;sensor_type;location;lat;lon;timestamp;temperature;humidity
9116;DHT22;4593;53.652;10.168;2023-08-24T00:00:55;19.10;86.40
9116;DHT22;4593;53.652;10.168;2023-08-24T00:03:21;19.00;86.60
9116;DHT22;4593;53.652;10.168;2023-08-24T00:05:48;19.00;86.60
9116;DHT22;4593;53.652;10.168;2023-08-24T00:08:13;19.00;86.50
9116;DHT22;4593;53.652;10.168;2023-08-24T00:10:39;19.00;86.80
9116;DHT22;4593;53.652;10.168;2023-08-24T00:13:05;19.00;86.90
9116;DHT22;4593;53.652;10.168;2023-08-24T00:15:30;19.00;86.80
9116;DHT22;4593;53.652;10.168;2023-08-24T00:17:56;18.90;87.00
9116;DHT22;4593;53.652;10.168;2023-08-24T00:20:22;18.90;87.20
9116;DHT22;4593;53.652;10.168;2023-08-24T00:22:48;18.90;87.70
9116;DHT22;4593;53.652;10.168;2023-08-24T00:25:14;18.90;87.80
9116;DHT22;4593;53.652;10.168;2023-08-24T00:27:40;18.90;87.80
9116;DHT22;4593;53.652;10.168;2023-08-24T00:30:07;18.70;88.30
9116;DHT22;4593;53.652;10.168;2023-08-24T00:32:36;18.60;88.60
9116;DHT22;4593;53.652;10.168;2023-08-24T00:35:02;18.50;88.80
9116;DHT22;4593;53.652;10.168;2023-08-24T00:37:29;18.30;89.20
9116;DHT22;4593;53.652;10.168;2023-08-24T00:39:55;18.20;89.40
9116;DHT22;4593;53.652;10.168;2023-08-24T00:42:21;18.20;89.30
9116;DHT22;4593;53.652;10.168;2023-08-24T00:44:48;18.10;89.60
9116;DHT22;4593;53.652;10.168;2023-08-24T00:47:14;18.10;89.70
9116;DHT22;4593;53.652;10.168;2023-08-24T00:49:41;18.20;89.90
9116;DHT22;4593;53.652;10.168;2023-08-24T00:52:07;18.20;89.90
9116;DHT22;4593;53.652;10.168;2023-08-24T00:54:33;18.30;90.10
9116;DHT22;4593;53.652;10.168;2023-08-24T00:56:59;18.40;90.30
9116;DHT22;4593;53.652;10.168;2023-08-24T00:59:25;18.40;90.20
9116;DHT22;4593;53.652;10.168;2023-08-24T01:01:51;18.40;90.40
9116;DHT22;4593;53.652;10.168;2023-08-24T01:04:17;18.40;90.50
9116;DHT22;4593;53.652;10.168;2023-08-24T01:06:43;18.40;90.50
9116;DHT22;4593;53.652;10.168;2023-08-24T01:09:09;18.40;90.80
9116;DHT22;4593;53.652;10.168;2023-08-24T01:17:22;18.20;91.10
9116;DHT22;4593;53.652;10.168;2023-08-24T01:19:48;18.10;91.20
9116;DHT22;4593;53.652;10.168;2023-08-24T01:25:16;17.90;91.70
9116;DHT22;4593;53.652;10.168;2023-08-24T01:27:43;17.80;91.90
9116;DHT22;4593;53.652;10.168;2023-08-24T01:30:09;17.80;92.30
9116;DHT22;4593;53.652;10.168;2023-08-24T01:32:35;17.70;92.30
9116;DHT22;4593;53.652;10.168;2023-08-24T01:35:06;17.70;92.60
9116;DHT22;4593;53.652;10.168;2023-08-24T01:37:34;17.70;92.90
9116;DHT22;4593;53.652;10.168;2023-08-24T01:40:07;17.70;92.80
9116;DHT22;4593;53.652;10.168;2023-08-24T01:42:56;17.70;92.70
9116;DHT22;4593;53.652;10.168;2023-08-24T01:45:27;17.60;92.80
9116;DHT22;4593;53.652;10.168;2023-08-24T01:47:55;17.50;93.10
9116;DHT22;4593;53.652;10.168;2023-08-24T01:50:22;17.50;93.20
9116;DHT22;4593;53.652;10.168;2023-08-24T01:52:49;17.50;93.30
9116;DHT22;4593;53.652;10.168;2023-08-24T01:55:18;17.50;93.40
9116;DHT22;4593;53.652;10.168;2023-08-24T01:57:44;17.40;93.50
9116;DHT22;4593;53.652;10.168;2023-08-24T02:00:10;17.30;93.80
9116;DHT22;4593;53.652;10.168;2023-08-24T02:02:36;17.30;93.80
9116;DHT22;4593;53.652;10.168;2023-08-24T02:05:02;17.20;94.00
9116;DHT22;4593;53.652;10.168;2023-08-24T02:07:28;17.10;94.30
9116;DHT22;4593;53.652;10.168;2023-08-24T02:09:54;17.10;94.10
9116;DHT22;4593;53.652;10.168;2023-08-24T02:12:20;17.00;94.10
9116;DHT22;4593;53.652;10.168;2023-08-24T02:14:46;16.90;94.20
9116;DHT22;4593;53.652;10.168;2023-08-24T02:17:11;16.80;94.40
9116;DHT22;4593;53.652;10.168;2023-08-24T02:19:37;16.80;94.40
9116;DHT22;4593;53.652;10.168;2023-08-24T02:22:02;16.70;94.70
9116;DHT22;4593;53.652;10.168;2023-08-24T02:24:29;16.60;94.90
9116;DHT22;4593;53.652;10.168;2023-08-24T02:26:54;16.60;95.10
9116;DHT22;4593;53.652;10.168;2023-08-24T02:29:20;16.60;95.10
9116;DHT22;4593;53.652;10.168;2023-08-24T02:31:45;16.50;95.30
9116;DHT22;4593;53.652;10.168;2023-08-24T02:34:11;16.50;95.50
9116;DHT22;4593;53.652;10.168;2023-08-24T02:36:37;16.50;95.40
9116;DHT22;4593;53.652;10.168;2023-08-24T02:39:02;16.50;95.50
9116;DHT22;4593;53.652;10.168;2023-08-24T02:41:28;16.40;95.50
9116;DHT22;4593;53.652;10.168;2023-08-24T02:43:54;16.40;95.80
9116;DHT22;4593;53.652;10.168;2023-08-24T02:46:21;16.40;95.80
9116;DHT22;4593;53.652;10.168;2023-08-24T02:48:46;16.40;95.80
9116;DHT22;4593;53.652;10.168;2023-08-24T02:51:13;16.40;95.80
9116;DHT22;4593;53.652;10.168;2023-08-24T02:53:38;16.40;96.00
9116;DHT22;4593;53.652;10.168;2023-08-24T02:56:04;16.40;96.00
9116;DHT22;4593;53.652;10.168;2023-08-24T02:58:30;16.40;96.00
9116;DHT22;4593;53.652;10.168;2023-08-24T03:00:56;16.30;96.00
9116;DHT22;4593;53.652;10.168;2023-08-24T03:03:23;16.30;96.00
9116;DHT22;4593;53.652;10.168;2023-08-24T03:05:57;16.30;95.80
9116;DHT22;4593;53.652;10.168;2023-08-24T03:08:23;16.30;95.80
9116;DHT22;4593;53.652;10.168;2023-08-24T03:10:49;16.30;96.10
9116;DHT22;4593;53.652;10.168;2023-08-24T03:13:15;16.30;96.10
9116;DHT22;4593;53.652;10.168;2023-08-24T03:15:41;16.30;96.00
9116;DHT22;4593;53.652;10.168;2023-08-24T03:18:06;16.30;95.90
9116;DHT22;4593;53.652;10.168;2023-08-24T03:20:32;16.20;95.80
9116;DHT22;4593;53.652;10.168;2023-08-24T03:22:58;16.20;96.20
9116;DHT22;4593;53.652;10.168;2023-08-24T03:25:24;16.20;96.00
9116;DHT22;4593;53.652;10.168;2023-08-24T03:27:49;16.20;95.90
9116;DHT22;4593;53.652;10.168;2023-08-24T03:30:16;16.20;95.90
9116;DHT22;4593;53.652;10.168;2023-08-24T03:32:41;16.20;96.00
9116;DHT22;4593;53.652;10.168;2023-08-24T03:35:07;16.10;96.20
9116;DHT22;4593;53.652;10.168;2023-08-24T03:37:33;16.10;96.20
9116;DHT22;4593;53.652;10.168;2023-08-24T03:39:59;16.10;96.20
9116;DHT22;4593;53.652;10.168;2023-08-24T03:42:25;16.00;96.50
9116;DHT22;4593;53.652;10.168;2023-08-24T03:44:50;16.00;96.20
9116;DHT22;4593;53.652;10.168;2023-08-24T03:47:16;15.90;96.30
9116;DHT22;4593;53.652;10.168;2023-08-24T03:49:45;15.90;96.40
9116;DHT22;4593;53.652;10.168;2023-08-24T03:52:10;15.90;96.40
9116;DHT22;4593;53.652;10.168;2023-08-24T03:54:36;15.90;96.30
9116;DHT22;4593;53.652;10.168;2023-08-24T03:57:02;15.80;96.40
9116;DHT22;4593;53.652;10.168;2023-08-24T03:59:28;15.80;96.30
9116;DHT22;4593;53.652;10.168;2023-08-24T04:01:53;15.80;96.50
9116;DHT22;4593;53.652;10.168;2023-08-24T04:04:19;15.80;96.40
9116;DHT22;4593;53.652;10.168;2023-08-24T04:06:45;15.80;96.50
9116;DHT22;4593;53.652;10.168;2023-08-24T04:09:11;15.70;96.50
9116;DHT22;4593;53.652;10.168;2023-08-24T04:11:36;15.70;96.10
9116;DHT22;4593;53.652;10.168;2023-08-24T04:14:02;15.70;96.50
9116;DHT22;4593;53.652;10.168;2023-08-24T04:16:27;15.70;96.80
9116;DHT22;4593;53.652;10.168;2023-08-24T04:18:53;15.70;97.00
9116;DHT22;4593;53.652;10.168;2023-08-24T04:21:19;15.70;97.10
9116;DHT22;4593;53.652;10.168;2023-08-24T04:23:44;15.70;97.30
9116;DHT22;4593;53.652;10.168;2023-08-24T04:26:13;15.70;97.20
9116;DHT22;4593;53.652;10.168;2023-08-24T04:28:39;15.70;97.10
9116;DHT22;4593;53.652;10.168;2023-08-24T04:31:05;15.70;97.20
9116;DHT22;4593;53.652;10.168;2023-08-24T04:33:31;15.70;97.00
9116;DHT22;4593;53.652;10.168;2023-08-24T04:35:57;15.70;96.90
9116;DHT22;4593;53.652;10.168;2023-08-24T04:38:23;15.70;97.00
9116;DHT22;4593;53.652;10.168;2023-08-24T04:40:51;15.70;97.10
9116;DHT22;4593;53.652;10.168;2023-08-24T04:43:19;15.70;97.00
9116;DHT22;4593;53.652;10.168;2023-08-24T04:45:49;15.70;96.90
9116;DHT22;4593;53.652;10.168;2023-08-24T04:48:15;15.70;96.90
9116;DHT22;4593;53.652;10.168;2023-08-24T04:50:45;15.70;97.00
9116;DHT22;4593;53.652;10.168;2023-08-24T04:53:15;15.70;97.00
9116;DHT22;4593;53.652;10.168;2023-08-24T04:55:41;15.60;96.90
9116;DHT22;4593;53.652;10.168;2023-08-24T04:58:08;15.60;96.70
9116;DHT22;4593;53.652;10.168;2023-08-24T05:00:34;15.60;97.00
9116;DHT22;4593;53.652;10.168;2023-08-24T05:03:01;15.60;97.00
9116;DHT22;4593;53.652;10.168;2023-08-24T05:05:29;15.60;96.80
9116;DHT22;4593;53.652;10.168;2023-08-24T05:07:55;15.60;97.20
9116;DHT22;4593;53.652;10.168;2023-08-24T05:10:21;15.60;96.80
9116;DHT22;4593;53.652;10.168;2023-08-24T05:12:46;15.60;97.10
9116;DHT22;4593;53.652;10.168;2023-08-24T05:15:12;15.70;97.40
9116;DHT22;4593;53.652;10.168;2023-08-24T05:17:39;15.70;97.50
9116;DHT22;4593;53.652;10.168;2023-08-24T05:20:07;15.80;97.30
9116;DHT22;4593;53.652;10.168;2023-08-24T05:22:34;15.80;97.30
9116;DHT22;4593;53.652;10.168;2023-08-24T05:25:00;15.80;97.00
9116;DHT22;4593;53.652;10.168;2023-08-24T05:27:25;15.80;97.10
9116;DHT22;4593;53.652;10.168;2023-08-24T05:29:51;15.80;97.10
9116;DHT22;4593;53.652;10.168;2023-08-24T05:32:17;15.90;97.20
9116;DHT22;4593;53.652;10.168;2023-08-24T05:34:42;15.90;97.10
9116;DHT22;4593;53.652;10.168;2023-08-24T05:37:08;16.00;96.90
9116;DHT22;4593;53.652;10.168;2023-08-24T05:39:33;16.00;96.80
9116;DHT22;4593;53.652;10.168;2023-08-24T05:41:59;16.10;97.10
9116;DHT22;4593;53.652;10.168;2023-08-24T05:44:25;16.20;97.20
9116;DHT22;4593;53.652;10.168;2023-08-24T05:46:50;16.30;97.20
9116;DHT22;4593;53.652;10.168;2023-08-24T05:49:16;16.40;97.00
9116;DHT22;4593;53.652;10.168;2023-08-24T05:51:42;16.40;96.80
9116;DHT22;4593;53.652;10.168;2023-08-24T05:54:07;16.50;96.90
9116;DHT22;4593;53.652;10.168;2023-08-24T05:56:33;16.60;97.10
9116;DHT22;4593;53.652;10.168;2023-08-24T05:58:59;16.60;96.80
9116;DHT22;4593;53.652;10.168;2023-08-24T06:01:25;16.70;96.70
9116;DHT22;4593;53.652;10.168;2023-08-24T06:03:51;16.80;96.70
9116;DHT22;4593;53.652;10.168;2023-08-24T06:06:16;16.80;96.70
9116;DHT22;4593;53.652;10.168;2023-08-24T06:08:42;16.90;96.30
9116;DHT22;4593;53.652;10.168;2023-08-24T06:11:08;16.90;96.20
9116;DHT22;4593;53.652;10.168;2023-08-24T06:13:34;17.00;95.70
9116;DHT22;4593;53.652;10.168;2023-08-24T06:16:00;17.10;95.90
9116;DHT22;4593;53.652;10.168;2023-08-24T06:18:27;17.10;95.20
9116;DHT22;4593;53.652;10.168;2023-08-24T06:20:53;17.20;95.30
9116;DHT22;4593;53.652;10.168;2023-08-24T06:23:19;17.30;94.60
9116;DHT22;4593;53.652;10.168;2023-08-24T06:25:45;17.30;94.20
9116;DHT22;4593;53.652;10.168;2023-08-24T06:28:11;17.40;93.90
9116;DHT22;4593;53.652;10.168;2023-08-24T06:30:43;17.50;94.00
9116;DHT22;4593;53.652;10.168;2023-08-24T06:33:09;17.50;93.60
9116;DHT22;4593;53.652;10.168;2023-08-24T06:35:36;17.60;93.60
9116;DHT22;4593;53.652;10.168;2023-08-24T06:38:03;17.70;93.10
9116;DHT22;4593;53.652;10.168;2023-08-24T06:40:29;17.80;92.60
9116;DHT22;4593;53.652;10.168;2023-08-24T06:42:56;17.90;92.10
9116;DHT22;4593;53.652;10.168;2023-08-24T06:45:21;17.90;90.30
9116;DHT22;4593;53.652;10.168;2023-08-24T06:47:47;17.90;90.10
9116;DHT22;4593;53.652;10.168;2023-08-24T06:50:14;18.00;90.10
9116;DHT22;4593;53.652;10.168;2023-08-24T06:52:41;18.10;89.60
9116;DHT22;4593;53.652;10.168;2023-08-24T06:55:08;18.20;87.50
9116;DHT22;4593;53.652;10.168;2023-08-24T06:57:35;18.20;85.90
9116;DHT22;4593;53.652;10.168;2023-08-24T07:00:00;18.20;83.80
9116;DHT22;4593;53.652;10.168;2023-08-24T07:02:26;18.30;83.60
9116;DHT22;4593;53.652;10.168;2023-08-24T07:04:52;18.40;84.00
9116;DHT22;4593;53.652;10.168;2023-08-24T07:07:17;18.60;84.20
9116;DHT22;4593;53.652;10.168;2023-08-24T07:09:43;18.80;83.80
9116;DHT22;4593;53.652;10.168;2023-08-24T07:12:09;18.90;82.30
9116;DHT22;4593;53.652;10.168;2023-08-24T07:14:36;19.10;80.80
9116;DHT22;4593;53.652;10.168;2023-08-24T07:17:02;19.10;78.80
9116;DHT22;4593;53.652;10.168;2023-08-24T07:19:27;19.00;79.80
9116;DHT22;4593;53.652;10.168;2023-08-24T07:21:53;19.10;80.40
9116;DHT22;4593;53.652;10.168;2023-08-24T07:24:19;19.30;80.70
9116;DHT22;4593;53.652;10.168;2023-08-24T07:26:46;19.60;79.40
9116;DHT22;4593;53.652;10.168;2023-08-24T07:29:12;19.50;78.60
9116;DHT22;4593;53.652;10.168;2023-08-24T07:31:38;19.40;79.10
9116;DHT22;4593;53.652;10.168;2023-08-24T07:34:03;19.60;78.90
9116;DHT22;4593;53.652;10.168;2023-08-24T07:36:30;19.80;76.40
9116;DHT22;4593;53.652;10.168;2023-08-24T07:38:56;19.90;76.00
9116;DHT22;4593;53.652;10.168;2023-08-24T07:41:22;19.90;76.10
9116;DHT22;4593;53.652;10.168;2023-08-24T07:43:48;20.10;74.80
9116;DHT22;4593;53.652;10.168;2023-08-24T07:46:14;20.40;74.30
9116;DHT22;4593;53.652;10.168;2023-08-24T07:48:39;20.80;74.30
9116;DHT22;4593;53.652;10.168;2023-08-24T07:51:05;21.10;72.70
9116;DHT22;4593;53.652;10.168;2023-08-24T07:53:31;21.30;71.60
9116;DHT22;4593;53.652;10.168;2023-08-24T07:55:58;21.50;70.70
9116;DHT22;4593;53.652;10.168;2023-08-24T07:58:25;21.80;71.20
9116;DHT22;4593;53.652;10.168;2023-08-24T08:00:51;22.00;71.00
9116;DHT22;4593;53.652;10.168;2023-08-24T08:03:18;22.10;69.70
9116;DHT22;4593;53.652;10.168;2023-08-24T08:05:44;22.30;69.70
9116;DHT22;4593;53.652;10.168;2023-08-24T08:08:10;22.50;68.30
9116;DHT22;4593;53.652;10.168;2023-08-24T08:10:35;22.60;66.70
9116;DHT22;4593;53.652;10.168;2023-08-24T08:13:01;22.50;65.40
9116;DHT22;4593;53.652;10.168;2023-08-24T08:15:26;22.70;66.50
9116;DHT22;4593;53.652;10.168;2023-08-24T08:17:52;22.60;64.10
9116;DHT22;4593;53.652;10.168;2023-08-24T08:20:18;22.70;65.70
9116;DHT22;4593;53.652;10.168;2023-08-24T08:22:44;22.70;65.30
9116;DHT22;4593;53.652;10.168;2023-08-24T08:25:10;22.80;64.30
9116;DHT22;4593;53.652;10.168;2023-08-24T08:27:37;22.70;63.20
9116;DHT22;4593;53.652;10.168;2023-08-24T08:30:03;22.60;65.60
9116;DHT22;4593;53.652;10.168;2023-08-24T08:32:32;22.50;64.80
9116;DHT22;4593;53.652;10.168;2023-08-24T08:34:57;22.80;65.50
9116;DHT22;4593;53.652;10.168;2023-08-24T08:37:25;22.90;63.50
9116;DHT22;4593;53.652;10.168;2023-08-24T08:39:51;23.10;70.60
9116;DHT22;4593;53.652;10.168;2023-08-24T08:42:16;23.20;66.40
9116;DHT22;4593;53.652;10.168;2023-08-24T08:44:45;23.20;62.40
9116;DHT22;4593;53.652;10.168;2023-08-24T08:47:11;23.30;61.30
9116;DHT22;4593;53.652;10.168;2023-08-24T08:49:38;23.30;62.80
9116;DHT22;4593;53.652;10.168;2023-08-24T08:52:05;23.50;61.40
9116;DHT22;4593;53.652;10.168;2023-08-24T08:54:31;23.50;61.00
9116;DHT22;4593;53.652;10.168;2023-08-24T08:56:59;23.60;61.40
9116;DHT22;4593;53.652;10.168;2023-08-24T08:59:27;23.50;58.80
9116;DHT22;4593;53.652;10.168;2023-08-24T09:02:03;23.30;59.80
9116;DHT22;4593;53.652;10.168;2023-08-24T09:04:33;23.30;60.80
9116;DHT22;4593;53.652;10.168;2023-08-24T09:06:59;23.50;65.20
9116;DHT22;4593;53.652;10.168;2023-08-24T09:09:29;23.70;64.50
9116;DHT22;4593;53.652;10.168;2023-08-24T09:11:55;23.90;63.30
9116;DHT22;4593;53.652;10.168;2023-08-24T09:14:21;23.90;60.80
9116;DHT22;4593;53.652;10.168;2023-08-24T09:16:47;23.90;61.10
9116;DHT22;4593;53.652;10.168;2023-08-24T09:19:12;23.80;59.70
9116;DHT22;4593;53.652;10.168;2023-08-24T09:21:39;23.80;59.70
9116;DHT22;4593;53.652;10.168;2023-08-24T09:24:06;24.10;61.20
9116;DHT22;4593;53.652;10.168;2023-08-24T09:26:36;24.20;58.90
9116;DHT22;4593;53.652;10.168;2023-08-24T09:29:15;24.40;59.10
9116;DHT22;4593;53.652;10.168;2023-08-24T09:31:42;24.60;60.40
9116;DHT22;4593;53.652;10.168;2023-08-24T09:34:11;24.80;59.30
9116;DHT22;4593;53.652;10.168;2023-08-24T09:36:37;25.00;58.30
9116;DHT22;4593;53.652;10.168;2023-08-24T09:39:04;24.80;57.80
9116;DHT22;4593;53.652;10.168;2023-08-24T09:41:43;24.70;57.70
9116;DHT22;4593;53.652;10.168;2023-08-24T09:44:09;24.80;60.70
9116;DHT22;4593;53.652;10.168;2023-08-24T09:46:36;24.80;61.50
9116;DHT22;4593;53.652;10.168;2023-08-24T09:49:05;24.80;60.40
9116;DHT22;4593;53.652;10.168;2023-08-24T09:51:33;24.60;61.50
9116;DHT22;4593;53.652;10.168;2023-08-24T09:54:10;24.90;62.60
9116;DHT22;4593;53.652;10.168;2023-08-24T09:56:38;25.20;59.30
9116;DHT22;4593;53.652;10.168;2023-08-24T09:59:12;25.50;58.80
9116;DHT22;4593;53.652;10.168;2023-08-24T10:01:41;25.30;59.40
9116;DHT22;4593;53.652;10.168;2023-08-24T10:04:08;25.40;58.20
9116;DHT22;4593;53.652;10.168;2023-08-24T10:06:36;25.30;58.80
9116;DHT22;4593;53.652;10.168;2023-08-24T10:09:04;25.30;59.80
9116;DHT22;4593;53.652;10.168;2023-08-24T10:11:35;25.30;59.50
9116;DHT22;4593;53.652;10.168;2023-08-24T10:14:15;25.30;57.20
9116;DHT22;4593;53.652;10.168;2023-08-24T10:16:42;25.40;58.10
9116;DHT22;4593;53.652;10.168;2023-08-24T10:19:09;25.80;59.80
9116;DHT22;4593;53.652;10.168;2023-08-24T10:21:37;26.00;56.70
9116;DHT22;4593;53.652;10.168;2023-08-24T10:24:03;26.00;57.90
9116;DHT22;4593;53.652;10.168;2023-08-24T10:26:30;25.80;56.70
9116;DHT22;4593;53.652;10.168;2023-08-24T10:28:58;25.80;59.00
9116;DHT22;4593;53.652;10.168;2023-08-24T10:31:24;25.90;56.40
9116;DHT22;4593;53.652;10.168;2023-08-24T10:33:50;25.70;56.10
9116;DHT22;4593;53.652;10.168;2023-08-24T10:36:16;25.50;56.50
9116;DHT22;4593;53.652;10.168;2023-08-24T10:38:43;25.40;59.60
9116;DHT22;4593;53.652;10.168;2023-08-24T10:41:10;25.40;56.40
9116;DHT22;4593;53.652;10.168;2023-08-24T10:43:40;25.30;57.50
9116;DHT22;4593;53.652;10.168;2023-08-24T10:46:13;25.50;57.50
9116;DHT22;4593;53.652;10.168;2023-08-24T10:53:59;26.10;58.00
9116;DHT22;4593;53.652;10.168;2023-08-24T10:56:39;26.10;55.00
9116;DHT22;4593;53.652;10.168;2023-08-24T10:59:14;26.00;54.70
9116;DHT22;4593;53.652;10.168;2023-08-24T11:01:41;25.40;56.00
9116;DHT22;4593;53.652;10.168;2023-08-24T11:04:07;25.30;57.10
9116;DHT22;4593;53.652;10.168;2023-08-24T11:06:54;25.50;59.20
9116;DHT22;4593;53.652;10.168;2023-08-24T11:09:20;25.50;55.80
9116;DHT22;4593;53.652;10.168;2023-08-24T11:12:00;25.60;57.40
9116;DHT22;4593;53.652;10.168;2023-08-24T11:14:26;25.80;59.00
9116;DHT22;4593;53.652;10.168;2023-08-24T11:16:53;25.90;59.00
9116;DHT22;4593;53.652;10.168;2023-08-24T11:19:19;25.90;55.60
9116;DHT22;4593;53.652;10.168;2023-08-24T11:21:46;25.70;55.30
9116;DHT22;4593;53.652;10.168;2023-08-24T11:24:15;25.50;55.00
9116;DHT22;4593;53.652;10.168;2023-08-24T11:26:48;25.30;55.50
9116;DHT22;4593;53.652;10.168;2023-08-24T11:29:15;25.30;56.30
9116;DHT22;4593;53.652;10.168;2023-08-24T11:31:41;25.10;56.80
9116;DHT22;4593;53.652;10.168;2023-08-24T11:34:07;25.10;57.70
9116;DHT22;4593;53.652;10.168;2023-08-24T11:36:48;25.30;57.60
9116;DHT22;4593;53.652;10.168;2023-08-24T11:41:42;24.90;55.00
9116;DHT22;4593;53.652;10.168;2023-08-24T11:44:07;24.80;56.80
9116;DHT22;4593;53.652;10.168;2023-08-24T11:46:33;25.00;58.40
9116;DHT22;4593;53.652;10.168;2023-08-24T11:48:59;25.30;56.60
9116;DHT22;4593;53.652;10.168;2023-08-24T11:51:25;25.40;55.40
9116;DHT22;4593;53.652;10.168;2023-08-24T11:53:51;25.20;55.40
9116;DHT22;4593;53.652;10.168;2023-08-24T11:56:17;25.30;64.00
9116;DHT22;4593;53.652;10.168;2023-08-24T11:58:47;25.50;61.10
9116;DHT22;4593;53.652;10.168;2023-08-24T12:01:13;25.80;59.20
9116;DHT22;4593;53.652;10.168;2023-08-24T12:03:39;26.00;54.80
9116;DHT22;4593;53.652;10.168;2023-08-24T12:06:12;26.20;55.80
9116;DHT22;4593;53.652;10.168;2023-08-24T12:08:45;26.30;55.60
9116;DHT22;4593;53.652;10.168;2023-08-24T12:11:19;26.60;54.80
9116;DHT22;4593;53.652;10.168;2023-08-24T12:13:49;26.60;51.60
9116;DHT22;4593;53.652;10.168;2023-08-24T12:16:19;26.70;51.80
9116;DHT22;4593;53.652;10.168;2023-08-24T12:18:56;26.50;48.90
9116;DHT22;4593;53.652;10.168;2023-08-24T12:21:23;26.20;49.70
9116;DHT22;4593;53.652;10.168;2023-08-24T12:24:15;26.20;50.30
9116;DHT22;4593;53.652;10.168;2023-08-24T12:26:41;26.30;49.20
9116;DHT22;4593;53.652;10.168;2023-08-24T12:29:09;26.50;49.30
9116;DHT22;4593;53.652;10.168;2023-08-24T12:31:35;26.70;50.90
9116;DHT22;4593;53.652;10.168;2023-08-24T12:34:06;27.00;53.80
9116;DHT22;4593;53.652;10.168;2023-08-24T12:36:33;27.20;51.10
9116;DHT22;4593;53.652;10.168;2023-08-24T12:39:01;27.40;47.40
9116;DHT22;4593;53.652;10.168;2023-08-24T12:41:29;27.00;48.50
9116;DHT22;4593;53.652;10.168;2023-08-24T12:43:54;27.10;50.40
9116;DHT22;4593;53.652;10.168;2023-08-24T12:46:20;27.30;50.00
9116;DHT22;4593;53.652;10.168;2023-08-24T12:48:46;27.40;50.80
9116;DHT22;4593;53.652;10.168;2023-08-24T12:51:11;27.50;49.10
9116;DHT22;4593;53.652;10.168;2023-08-24T12:53:37;27.20;48.40
9116;DHT22;4593;53.652;10.168;2023-08-24T12:56:03;27.10;51.40
9116;DHT22;4593;53.652;10.168;2023-08-24T12:58:29;27.20;52.10
9116;DHT22;4593;53.652;10.168;2023-08-24T13:00:55;27.20;51.30
9116;DHT22;4593;53.652;10.168;2023-08-24T13:03:21;27.30;53.50
9116;DHT22;4593;53.652;10.168;2023-08-24T13:05:47;27.30;51.80
9116;DHT22;4593;53.652;10.168;2023-08-24T13:08:13;27.20;50.80
9116;DHT22;4593;53.652;10.168;2023-08-24T13:10:39;27.30;51.30
9116;DHT22;4593;53.652;10.168;2023-08-24T13:13:04;27.50;51.00
9116;DHT22;4593;53.652;10.168;2023-08-24T13:15:30;27.60;51.20
9116;DHT22;4593;53.652;10.168;2023-08-24T13:17:56;27.50;51.60
9116;DHT22;4593;53.652;10.168;2023-08-24T13:20:24;27.50;50.20
9116;DHT22;4593;53.652;10.168;2023-08-24T13:22:51;27.50;51.60
9116;DHT22;4593;53.652;10.168;2023-08-24T13:25:18;27.40;53.20
9116;DHT22;4593;53.652;10.168;2023-08-24T13:27:43;27.30;53.10
9116;DHT22;4593;53.652;10.168;2023-08-24T13:30:09;27.10;53.20
9116;DHT22;4593;53.652;10.168;2023-08-24T13:32:35;27.00;54.10
9116;DHT22;4593;53.652;10.168;2023-08-24T13:35:02;26.70;53.00
9116;DHT22;4593;53.652;10.168;2023-08-24T13:37:28;26.50;54.00
9116;DHT22;4593;53.652;10.168;2023-08-24T13:39:54;26.30;55.50
9116;DHT22;4593;53.652;10.168;2023-08-24T13:42:19;26.10;54.40
9116;DHT22;4593;53.652;10.168;2023-08-24T13:44:45;26.00;54.20
9116;DHT22;4593;53.652;10.168;2023-08-24T13:47:12;25.90;55.60
9116;DHT22;4593;53.652;10.168;2023-08-24T13:49:37;25.70;55.60
9116;DHT22;4593;53.652;10.168;2023-08-24T13:52:04;25.80;56.00
9116;DHT22;4593;53.652;10.168;2023-08-24T13:54:29;25.70;56.50
9116;DHT22;4593;53.652;10.168;2023-08-24T13:56:56;25.70;57.30
9116;DHT22;4593;53.652;10.168;2023-08-24T13:59:21;25.60;58.00
9116;DHT22;4593;53.652;10.168;2023-08-24T14:01:47;25.60;58.20
9116;DHT22;4593;53.652;10.168;2023-08-24T14:04:13;25.70;58.40
9116;DHT22;4593;53.652;10.168;2023-08-24T14:06:39;25.60;58.20
9116;DHT22;4593;53.652;10.168;2023-08-24T14:09:05;25.70;58.70
9116;DHT22;4593;53.652;10.168;2023-08-24T14:11:31;25.60;58.90
9116;DHT22;4593;53.652;10.168;2023-08-24T14:13:58;25.70;59.20
9116;DHT22;4593;53.652;10.168;2023-08-24T14:16:24;25.80;59.50
9116;DHT22;4593;53.652;10.168;2023-08-24T14:18:52;25.80;57.10
9116;DHT22;4593;53.652;10.168;2023-08-24T14:21:18;25.60;56.40
9116;DHT22;4593;53.652;10.168;2023-08-24T14:23:45;25.60;57.70
9116;DHT22;4593;53.652;10.168;2023-08-24T14:26:11;25.60;59.00
9116;DHT22;4593;53.652;10.168;2023-08-24T14:31:17;25.80;58.00
9116;DHT22;4593;53.652;10.168;2023-08-24T14:33:42;25.90;58.50
9116;DHT22;4593;53.652;10.168;2023-08-24T14:36:09;26.00;57.30
9116;DHT22;4593;53.652;10.168;2023-08-24T14:38:38;26.10;57.20
9116;DHT22;4593;53.652;10.168;2023-08-24T14:41:04;26.20;58.90
9116;DHT22;4593;53.652;10.168;2023-08-24T14:43:29;26.40;59.40
9116;DHT22;4593;53.652;10.168;2023-08-24T14:45:55;26.60;58.80
9116;DHT22;4593;53.652;10.168;2023-08-24T14:48:20;26.80;58.30
9116;DHT22;4593;53.652;10.168;2023-08-24T14:50:46;27.00;59.30
9116;DHT22;4593;53.652;10.168;2023-08-24T14:53:12;27.20;55.30
9116;DHT22;4593;53.652;10.168;2023-08-24T14:55:38;27.30;56.50
9116;DHT22;4593;53.652;10.168;2023-08-24T14:58:04;27.30;55.90
9116;DHT22;4593;53.652;10.168;2023-08-24T15:00:30;27.40;55.00
9116;DHT22;4593;53.652;10.168;2023-08-24T15:02:55;27.40;54.80
9116;DHT22;4593;53.652;10.168;2023-08-24T15:05:22;27.50;54.00
9116;DHT22;4593;53.652;10.168;2023-08-24T15:07:48;27.50;54.10
9116;DHT22;4593;53.652;10.168;2023-08-24T15:10:14;27.40;52.80
9116;DHT22;4593;53.652;10.168;2023-08-24T15:12:40;27.30;54.40
9116;DHT22;4593;53.652;10.168;2023-08-24T15:15:06;27.30;53.50
9116;DHT22;4593;53.652;10.168;2023-08-24T15:17:31;27.20;55.90
9116;DHT22;4593;53.652;10.168;2023-08-24T15:19:57;27.10;56.50
9116;DHT22;4593;53.652;10.168;2023-08-24T15:22:23;27.20;56.90
9116;DHT22;4593;53.652;10.168;2023-08-24T15:24:49;27.20;57.90
9116;DHT22;4593;53.652;10.168;2023-08-24T15:27:15;27.20;56.40
9116;DHT22;4593;53.652;10.168;2023-08-24T15:29:41;27.10;56.20
9116;DHT22;4593;53.652;10.168;2023-08-24T15:32:06;27.20;57.70
9116;DHT22;4593;53.652;10.168;2023-08-24T15:34:32;27.10;56.50
9116;DHT22;4593;53.652;10.168;2023-08-24T15:36:58;27.00;56.90
9116;DHT22;4593;53.652;10.168;2023-08-24T15:39:23;26.90;58.60
9116;DHT22;4593;53.652;10.168;2023-08-24T15:41:50;26.90;59.40
9116;DHT22;4593;53.652;10.168;2023-08-24T15:44:15;26.80;58.90
9116;DHT22;4593;53.652;10.168;2023-08-24T15:46:41;26.70;59.10
9116;DHT22;4593;53.652;10.168;2023-08-24T15:49:06;26.70;58.70
9116;DHT22;4593;53.652;10.168;2023-08-24T15:51:32;26.60;58.30
9116;DHT22;4593;53.652;10.168;2023-08-24T15:53:58;26.70;59.50
9116;DHT22;4593;53.652;10.168;2023-08-24T15:56:25;26.70;59.20
9116;DHT22;4593;53.652;10.168;2023-08-24T15:58:51;26.70;59.10
9116;DHT22;4593;53.652;10.168;2023-08-24T16:01:16;26.70;59.50